Time;durP1;ratioP1;P1;durP2;ratioP2;P2;SDS_P1;SDS_P2;PMS_P1;PMS_P2;Temp;Humidity;BMP_temperature;BMP_pressure;BME280_temperature;BME280_humidity;BME280_pressure;Samples;Min_cycle;Max_cycle;Signal;HPM_P1;HPM_P2
2022/08/03 00:01:25;;;;;;;5.72;1.90;;;20.20;99.90;;;;;;5076131;28;20047;-75
2022/08/03 00:03:51;;;;;;;6.15;1.95;;;20.20;99.90;;;;;;5020731;28;20109;-77
2022/08/03 00:06:17;;;;;;;5.03;1.98;;;20.20;99.90;;;;;;5061407;28;20483;-76
2022/08/03 00:08:43;;;;;;;5.55;1.70;;;20.20;99.90;;;;;;5039939;28;20036;-76
2022/08/03 00:11:08;;;;;;;5.85;1.83;;;20.10;99.90;;;;;;5055252;28;20037;-76
2022/08/03 00:13:34;;;;;;;8.80;2.08;;;20.10;99.90;;;;;;5037330;28;20439;-77
2022/08/03 00:15:59;;;;;;;8.27;2.30;;;20.10;99.90;;;;;;5029371;28;20065;-77
2022/08/03 00:18:25;;;;;;;4.68;1.67;;;20.10;99.90;;;;;;5028011;28;20044;-76
2022/08/03 00:20:50;;;;;;;5.20;1.90;;;20.00;99.90;;;;;;5030041;28;20068;-76
2022/08/03 00:23:16;;;;;;;5.85;2.30;;;20.00;99.90;;;;;;5037373;28;20495;-77
2022/08/03 00:25:42;;;;;;;7.88;2.10;;;19.90;99.90;;;;;;5029927;28;20620;-77
2022/08/03 00:28:08;;;;;;;6.05;2.35;;;19.80;99.90;;;;;;5027093;28;20079;-76
2022/08/03 00:30:34;;;;;;;6.55;2.10;;;19.80;99.90;;;;;;5021095;28;20034;-76
2022/08/03 00:33:00;;;;;;;5.07;1.90;;;19.80;99.90;;;;;;5011894;28;20388;-76
2022/08/03 00:35:26;;;;;;;6.78;2.05;;;19.80;99.90;;;;;;5034710;28;20442;-77
2022/08/03 00:37:51;;;;;;;8.65;2.10;;;19.80;99.90;;;;;;5030032;28;20036;-76
2022/08/03 00:40:18;;;;;;;6.13;2.35;;;19.80;99.90;;;;;;5021141;28;20041;-77
2022/08/03 00:42:49;;;;;;;6.32;2.08;;;19.80;99.90;;;;;;5023322;28;20091;-76
2022/08/03 00:45:16;;;;;;;7.80;2.20;;;19.70;99.90;;;;;;5028709;28;20565;-76
2022/08/03 00:47:41;;;;;;;10.77;2.47;;;19.70;99.90;;;;;;5024309;28;20178;-76
2022/08/03 00:50:07;;;;;;;6.80;2.40;;;19.70;99.90;;;;;;5029787;28;20538;-75
2022/08/03 00:52:34;;;;;;;6.82;2.42;;;19.70;99.90;;;;;;5059266;28;20650;-76
2022/08/03 00:55:00;;;;;;;6.68;2.20;;;19.60;99.90;;;;;;5023122;28;20091;-76
2022/08/03 00:57:27;;;;;;;7.38;2.20;;;19.60;99.90;;;;;;5040847;28;20034;-77
2022/08/03 00:59:53;;;;;;;8.70;2.30;;;19.50;99.90;;;;;;5050046;28;20118;-77
2022/08/03 01:02:19;;;;;;;5.70;2.47;;;19.50;99.90;;;;;;5022678;28;20103;-77
2022/08/03 01:04:44;;;;;;;6.57;2.20;;;19.50;99.90;;;;;;5029583;28;20037;-77
2022/08/03 01:07:35;;;;;;;6.40;2.00;;;19.50;99.90;;;;;;5040916;28;20035;-76
2022/08/03 01:10:05;;;;;;;6.28;2.10;;;19.50;99.90;;;;;;5035615;28;20034;-77
2022/08/03 01:12:36;;;;;;;5.50;1.98;;;19.50;99.90;;;;;;5050985;28;20040;-77
2022/08/03 01:15:26;;;;;;;7.05;1.92;;;19.50;99.90;;;;;;5032763;28;20044;-76
2022/08/03 01:18:02;;;;;;;8.52;2.20;;;19.50;99.90;;;;;;5039553;28;20384;-77
2022/08/03 01:20:32;;;;;;;6.18;1.90;;;19.50;99.90;;;;;;5041087;28;20087;-77
2022/08/03 01:23:20;;;;;;;5.78;1.52;;;19.50;99.90;;;;;;5016396;28;20492;-76
2022/08/03 01:26:16;;;;;;;4.38;1.98;;;19.50;99.90;;;;;;5020937;28;20554;-77
2022/08/03 01:29:09;;;;;;;6.70;1.83;;;19.50;99.90;;;;;;5033244;28;20033;-78
2022/08/03 01:31:43;;;;;;;5.70;1.70;;;19.50;99.90;;;;;;5061981;28;20049;-77
2022/08/03 01:34:13;;;;;;;4.38;1.58;;;19.50;99.90;;;;;;5022041;28;20038;-77
2022/08/03 01:36:46;;;;;;;5.07;1.50;;;19.40;99.90;;;;;;5024570;28;20479;-76
2022/08/03 01:39:12;;;;;;;5.43;1.83;;;19.40;99.90;;;;;;5023282;28;20045;-77
2022/08/03 01:41:45;;;;;;;5.32;1.90;;;19.40;99.90;;;;;;5038587;28;20060;-76
2022/08/03 01:44:11;;;;;;;7.05;1.85;;;19.40;99.90;;;;;;5034765;28;20029;-77
2022/08/03 01:46:39;;;;;;;4.75;1.35;;;19.30;99.90;;;;;;5019764;28;20042;-76
2022/08/03 01:49:08;;;;;;;5.95;1.90;;;19.40;99.90;;;;;;5050657;28;20069;-77
2022/08/03 01:51:40;;;;;;;6.88;1.77;;;19.30;99.90;;;;;;5011324;28;20129;-77
2022/08/03 01:54:08;;;;;;;7.15;1.80;;;19.30;99.90;;;;;;5035640;28;20559;-76
2022/08/03 01:56:34;;;;;;;7.47;1.48;;;19.30;99.90;;;;;;5036419;28;20365;-77
2022/08/03 01:59:02;;;;;;;8.55;1.92;;;19.40;99.90;;;;;;5039074;28;20086;-77
2022/08/03 02:01:28;;;;;;;6.45;1.70;;;19.30;99.90;;;;;;5026106;28;20520;-78
2022/08/03 02:03:57;;;;;;;4.45;1.60;;;19.30;99.90;;;;;;5036152;28;20496;-77
2022/08/03 02:06:25;;;;;;;5.22;1.48;;;19.30;99.90;;;;;;5039831;28;20487;-76
2022/08/03 02:08:53;;;;;;;4.28;1.58;;;19.30;99.90;;;;;;5031676;28;20096;-76
2022/08/03 02:11:19;;;;;;;6.00;1.98;;;19.30;99.90;;;;;;5038896;28;20048;-77
2022/08/03 02:13:45;;;;;;;7.13;1.90;;;19.30;99.90;;;;;;5025132;28;20034;-77
2022/08/03 02:16:13;;;;;;;4.47;1.80;;;19.30;99.90;;;;;;5025552;28;20067;-77
2022/08/03 02:18:39;;;;;;;5.80;1.63;;;19.30;99.90;;;;;;5037093;28;20549;-76
2022/08/03 02:21:09;;;;;;;5.40;1.42;;;19.30;99.90;;;;;;5035145;28;20052;-77
2022/08/03 02:23:35;;;;;;;6.82;1.50;;;19.30;99.90;;;;;;5025078;28;20033;-77
2022/08/03 02:26:03;;;;;;;7.25;1.80;;;19.20;99.90;;;;;;5027339;28;20030;-77
2022/08/03 02:28:34;;;;;;;4.93;1.52;;;19.20;99.90;;;;;;5018802;28;20040;-76
2022/08/03 02:31:06;;;;;;;3.85;1.42;;;19.20;99.90;;;;;;5030605;28;20043;-76
2022/08/03 02:33:42;;;;;;;5.75;1.50;;;19.20;99.90;;;;;;5039034;28;20110;-77
2022/08/03 02:36:10;;;;;;;8.18;2.00;;;19.20;99.90;;;;;;5029225;28;20448;-77
2022/08/03 02:38:40;;;;;;;8.10;1.80;;;19.20;99.90;;;;;;5013055;28;20057;-77
2022/08/03 02:41:15;;;;;;;4.85;1.50;;;19.20;99.90;;;;;;5032997;28;20052;-77
2022/08/03 02:43:44;;;;;;;5.85;1.75;;;19.20;99.90;;;;;;5042948;28;20109;-77
2022/08/03 02:46:12;;;;;;;6.43;1.80;;;19.20;99.90;;;;;;5012913;28;20038;-77
2022/08/03 02:48:41;;;;;;;11.25;2.10;;;19.00;99.90;;;;;;5033542;28;20033;-77
2022/08/03 02:51:08;;;;;;;6.93;1.90;;;19.10;99.90;;;;;;5035208;28;21941;-76
2022/08/03 02:53:35;;;;;;;4.68;1.70;;;19.10;99.90;;;;;;5022452;28;20551;-77
2022/08/03 02:56:02;;;;;;;4.82;1.63;;;19.10;99.90;;;;;;5030667;28;20171;-77
2022/08/03 02:58:30;;;;;;;9.90;2.42;;;19.10;99.90;;;;;;5032371;28;20084;-77
2022/08/03 03:00:56;;;;;;;7.35;1.80;;;19.10;99.90;;;;;;5032337;28;20523;-76
2022/08/03 03:03:22;;;;;;;6.90;1.98;;;19.00;99.90;;;;;;5034321;28;20124;-76
2022/08/03 03:05:49;;;;;;;7.97;2.08;;;19.00;99.90;;;;;;5033041;28;20029;-77
2022/08/03 03:08:17;;;;;;;5.40;1.80;;;19.00;99.90;;;;;;5024220;28;20391;-76
2022/08/03 03:10:43;;;;;;;7.85;1.67;;;19.00;99.90;;;;;;5034250;28;20041;-77
2022/08/03 03:13:10;;;;;;;6.82;2.30;;;18.90;99.90;;;;;;5025452;28;20030;-77
2022/08/03 03:15:38;;;;;;;6.13;1.80;;;18.90;99.90;;;;;;5040749;28;20056;-77
2022/08/03 03:18:05;;;;;;;6.68;1.90;;;18.90;99.90;;;;;;5043063;28;20395;-77
2022/08/03 03:20:34;;;;;;;6.97;1.85;;;18.80;99.90;;;;;;5039074;28;20577;-76
2022/08/03 03:23:00;;;;;;;5.53;1.85;;;18.90;99.90;;;;;;5035786;28;20083;-77
2022/08/03 03:25:30;;;;;;;4.75;1.73;;;18.90;99.90;;;;;;5037072;28;20045;-76
2022/08/03 03:27:56;;;;;;;6.60;1.80;;;18.80;99.90;;;;;;5031434;28;20073;-77
2022/08/03 03:30:22;;;;;;;5.53;1.85;;;18.80;99.90;;;;;;5023061;28;20033;-77
2022/08/03 03:32:48;;;;;;;6.35;1.98;;;18.80;99.90;;;;;;5040176;28;20476;-77
2022/08/03 03:35:15;;;;;;;8.43;2.33;;;18.80;99.90;;;;;;5027077;28;20604;-77
2022/08/03 03:37:41;;;;;;;8.38;2.40;;;18.80;99.90;;;;;;5037301;28;20071;-76
2022/08/03 03:40:07;;;;;;;6.05;1.65;;;18.70;99.90;;;;;;5051232;28;20086;-77
2022/08/03 03:42:33;;;;;;;9.60;1.98;;;18.70;99.90;;;;;;5045371;28;20534;-77
2022/08/03 03:45:05;;;;;;;7.13;2.10;;;18.70;99.90;;;;;;5036146;28;20068;-77
2022/08/03 03:47:33;;;;;;;5.60;1.75;;;18.70;99.90;;;;;;5018217;28;20038;-77
2022/08/03 03:50:00;;;;;;;6.90;2.22;;;18.70;99.90;;;;;;5025913;28;20088;-77
2022/08/03 03:52:26;;;;;;;5.05;1.55;;;18.70;99.90;;;;;;5023510;28;20045;-77
2022/08/03 03:54:51;;;;;;;8.15;2.13;;;18.60;99.90;;;;;;5022553;28;20044;-77
2022/08/03 03:57:17;;;;;;;7.72;2.13;;;18.60;99.90;;;;;;5031353;28;20041;-78
2022/08/03 03:59:43;;;;;;;9.63;2.08;;;18.60;99.90;;;;;;5031597;28;20068;-77
2022/08/03 04:02:10;;;;;;;5.07;1.92;;;18.50;99.90;;;;;;5007525;28;20041;-77
2022/08/03 04:13:08;;;;;;;5.72;2.15;;;18.50;99.90;;;;;;5015199;28;20160;-77
2022/08/03 04:15:40;;;;;;;5.75;2.47;;;18.50;99.90;;;;;;5011645;28;20073;-78
2022/08/03 04:18:08;;;;;;;5.18;2.13;;;18.50;99.90;;;;;;5031141;28;20122;-77
2022/08/03 04:20:37;;;;;;;6.70;2.35;;;18.50;99.90;;;;;;5033154;28;20037;-76
2022/08/03 04:23:04;;;;;;;10.07;2.63;;;18.50;99.90;;;;;;5028194;28;20108;-77
2022/08/03 04:25:32;;;;;;;7.28;2.70;;;18.50;99.90;;;;;;5033450;28;20057;-78
2022/08/03 04:28:00;;;;;;;6.38;2.45;;;18.50;99.90;;;;;;5036966;28;20555;-76
2022/08/03 04:30:28;;;;;;;8.20;2.28;;;18.50;99.90;;;;;;5039178;28;20029;-77
2022/08/03 04:32:57;;;;;;;5.78;2.15;;;18.60;99.90;;;;;;5023290;28;20038;-77
2022/08/03 04:35:27;;;;;;;7.30;2.42;;;18.60;99.90;;;;;;5033194;28;20033;-76
2022/08/03 04:37:55;;;;;;;6.53;2.28;;;18.60;99.90;;;;;;5033025;28;20095;-77
2022/08/03 04:40:32;;;;;;;7.30;2.25;;;18.70;99.90;;;;;;5022533;28;20041;-76
2022/08/03 04:42:58;;;;;;;7.63;2.30;;;18.80;99.90;;;;;;5034534;28;20389;-76
2022/08/03 04:45:26;;;;;;;4.65;2.25;;;18.80;99.90;;;;;;5054633;28;20033;-77
2022/08/03 04:47:52;;;;;;;8.60;2.60;;;18.80;99.90;;;;;;5023821;28;20060;-77
2022/08/03 04:50:18;;;;;;;4.85;2.40;;;18.90;99.90;;;;;;5037978;28;20034;-77
2022/08/03 04:52:44;;;;;;;7.00;2.50;;;18.90;99.90;;;;;;5047128;28;20547;-77
2022/08/03 04:55:10;;;;;;;8.77;2.15;;;19.00;99.90;;;;;;5020864;28;20190;-77
2022/08/03 04:57:35;;;;;;;9.55;2.20;;;19.10;99.90;;;;;;5023844;28;20041;-76
2022/08/03 05:00:01;;;;;;;7.80;2.30;;;19.10;99.90;;;;;;5031475;28;20073;-77
2022/08/03 05:02:27;;;;;;;6.40;2.33;;;19.20;99.90;;;;;;5020711;28;20038;-77
2022/08/03 05:04:52;;;;;;;6.18;2.22;;;19.20;99.90;;;;;;5009795;28;20121;-76
2022/08/03 05:07:18;;;;;;;6.93;2.05;;;19.30;99.90;;;;;;5034456;28;20030;-77
2022/08/03 05:09:44;;;;;;;8.38;2.40;;;19.30;99.90;;;;;;5039293;28;20033;-76
2022/08/03 05:12:09;;;;;;;10.00;2.42;;;19.30;99.90;;;;;;5015759;28;20591;-77
2022/08/03 05:14:37;;;;;;;9.18;2.60;;;19.30;99.90;;;;;;5062671;28;20076;-77
2022/08/03 05:17:04;;;;;;;11.07;2.90;;;19.30;99.90;;;;;;5013169;28;20084;-77
2022/08/03 05:19:30;;;;;;;7.00;1.88;;;19.40;99.90;;;;;;5022285;28;20055;-76
2022/08/03 05:21:55;;;;;;;6.50;2.17;;;19.40;99.90;;;;;;5023414;28;20125;-77
2022/08/03 05:24:21;;;;;;;7.60;2.30;;;19.50;99.90;;;;;;5026363;28;20041;-78
2022/08/03 05:26:46;;;;;;;9.23;2.38;;;19.50;99.90;;;;;;5029054;28;20069;-77
2022/08/03 05:29:12;;;;;;;8.60;2.47;;;19.60;99.90;;;;;;5028373;28;20099;-76
2022/08/03 05:31:38;;;;;;;7.93;2.50;;;19.70;99.90;;;;;;5026437;28;20033;-77
2022/08/03 05:34:03;;;;;;;8.27;2.70;;;19.80;99.90;;;;;;5046679;28;20483;-77
2022/08/03 05:36:29;;;;;;;7.75;2.42;;;19.80;99.90;;;;;;5027048;28;20050;-77
2022/08/03 05:38:54;;;;;;;8.15;2.30;;;19.90;99.90;;;;;;5038544;28;20411;-77
2022/08/03 05:41:20;;;;;;;8.27;2.50;;;19.90;99.90;;;;;;5021418;28;20492;-77
2022/08/03 05:43:45;;;;;;;9.80;2.50;;;19.90;99.90;;;;;;5028974;28;20487;-77
2022/08/03 05:46:11;;;;;;;10.90;2.53;;;19.90;99.90;;;;;;5027262;28;20562;-77
2022/08/03 05:48:37;;;;;;;7.57;2.38;;;19.90;99.90;;;;;;5023299;28;20069;-77
2022/08/03 05:51:05;;;;;;;8.27;2.45;;;20.00;99.90;;;;;;5028796;28;20042;-77
2022/08/03 05:53:34;;;;;;;5.38;2.20;;;20.10;99.90;;;;;;5031268;28;20112;-77
2022/08/03 05:55:59;;;;;;;7.05;2.40;;;20.10;99.90;;;;;;5066973;28;20411;-77
2022/08/03 05:58:25;;;;;;;9.43;2.72;;;20.20;99.90;;;;;;5029099;28;20042;-77
2022/08/03 06:00:50;;;;;;;9.75;2.40;;;20.20;99.90;;;;;;5034058;28;20581;-77
2022/08/03 06:03:16;;;;;;;9.00;2.40;;;20.30;99.90;;;;;;5029513;28;20512;-77
2022/08/03 06:05:42;;;;;;;8.65;2.55;;;20.40;99.90;;;;;;5036467;28;20399;-77
2022/08/03 06:08:07;;;;;;;9.80;2.58;;;20.50;99.90;;;;;;5038085;28;20034;-77
2022/08/03 06:10:33;;;;;;;10.57;2.80;;;20.60;99.90;;;;;;5033744;28;20105;-77
2022/08/03 06:12:58;;;;;;;8.55;2.15;;;20.60;99.90;;;;;;5032999;28;20045;-77
2022/08/03 06:15:24;;;;;;;8.55;2.53;;;20.70;99.90;;;;;;5032315;28;20068;-78
2022/08/03 06:17:51;;;;;;;8.95;2.75;;;20.80;99.90;;;;;;5032807;28;20041;-77
2022/08/03 06:20:18;;;;;;;15.07;2.90;;;20.70;99.90;;;;;;5032350;28;20041;-77
2022/08/03 06:22:45;;;;;;;9.13;2.42;;;20.80;99.90;;;;;;5032126;28;20050;-77
2022/08/03 06:25:10;;;;;;;8.15;2.28;;;20.90;99.90;;;;;;5032513;28;20135;-77
2022/08/03 06:27:38;;;;;;;10.27;2.97;;;20.90;99.90;;;;;;5037429;28;20116;-78
2022/08/03 06:30:06;;;;;;;8.18;2.30;;;21.10;99.90;;;;;;5041195;28;20482;-77
2022/08/03 06:32:32;;;;;;;8.98;2.78;;;21.20;99.90;;;;;;5038253;28;20037;-78
2022/08/03 06:34:58;;;;;;;8.00;2.50;;;21.30;99.90;;;;;;5041242;28;20115;-77
2022/08/03 06:37:25;;;;;;;11.02;2.80;;;21.40;99.90;;;;;;5042611;28;20739;-76
2022/08/03 06:39:51;;;;;;;12.00;2.95;;;21.50;99.90;;;;;;5041971;28;20049;-76
2022/08/03 06:42:17;;;;;;;8.40;2.63;;;21.50;99.90;;;;;;5040898;28;20041;-77
2022/08/03 06:44:42;;;;;;;9.73;3.03;;;21.50;99.90;;;;;;5024941;28;20128;-77
2022/08/03 06:47:08;;;;;;;9.90;2.95;;;21.60;99.90;;;;;;5037599;28;20038;-76
2022/08/03 06:49:34;;;;;;;8.20;2.85;;;21.60;99.90;;;;;;5052428;28;20045;-76
2022/08/03 06:51:59;;;;;;;9.57;3.20;;;21.80;99.90;;;;;;5024163;28;20570;-77
2022/08/03 06:54:25;;;;;;;10.70;2.72;;;21.80;99.90;;;;;;5029085;28;20045;-76
2022/08/03 06:56:50;;;;;;;8.15;2.75;;;21.90;99.90;;;;;;5032382;28;20492;-76
2022/08/03 06:59:16;;;;;;;10.95;2.70;;;22.00;99.90;;;;;;5032478;28;20110;-76
2022/08/03 07:01:42;;;;;;;7.55;2.78;;;22.10;99.90;;;;;;5065624;28;20448;-77
2022/08/03 07:04:07;;;;;;;8.48;3.10;;;22.20;99.90;;;;;;5063862;28;20063;-76
2022/08/03 07:06:33;;;;;;;12.52;3.30;;;22.30;99.90;;;;;;5031935;28;20397;-77
2022/08/03 07:08:58;;;;;;;10.68;3.10;;;22.40;99.90;;;;;;5032344;28;20041;-77
2022/08/03 07:11:24;;;;;;;7.63;2.65;;;22.50;99.90;;;;;;5032026;28;20034;-77
2022/08/03 07:13:50;;;;;;;12.02;3.05;;;22.70;99.90;;;;;;5030771;28;20558;-77
2022/08/03 07:16:15;;;;;;;9.63;2.40;;;22.70;99.90;;;;;;5030598;28;20565;-77
2022/08/03 07:18:41;;;;;;;10.80;3.00;;;22.80;99.90;;;;;;5064851;28;20396;-78
2022/08/03 07:21:11;;;;;;;12.98;3.00;;;23.00;99.90;;;;;;5031649;28;20045;-76
2022/08/03 07:23:37;;;;;;;11.23;3.25;;;23.00;99.90;;;;;;5030419;28;20045;-75
2022/08/03 07:26:02;;;;;;;8.23;3.50;;;23.10;99.90;;;;;;5064322;28;20071;-76
2022/08/03 07:28:28;;;;;;;10.73;3.17;;;23.10;99.90;;;;;;5031996;28;20041;-76
2022/08/03 07:30:53;;;;;;;10.20;2.95;;;23.10;99.90;;;;;;5065211;28;20037;-76
2022/08/03 07:33:19;;;;;;;12.45;2.92;;;23.20;99.90;;;;;;5031826;28;20038;-76
2022/08/03 07:35:45;;;;;;;12.85;3.83;;;23.20;99.90;;;;;;5031159;28;20064;-76
2022/08/03 07:38:11;;;;;;;11.38;3.67;;;23.20;99.90;;;;;;5031409;28;20038;-76
2022/08/03 07:40:36;;;;;;;10.63;3.05;;;23.10;99.90;;;;;;5031460;28;20052;-76
2022/08/03 07:43:02;;;;;;;10.45;2.78;;;23.20;99.90;;;;;;5031743;28;20495;-76
2022/08/03 07:45:29;;;;;;;7.38;3.00;;;23.30;99.90;;;;;;5064156;28;20033;-76
2022/08/03 07:47:55;;;;;;;10.45;2.63;;;23.50;99.90;;;;;;5031251;28;20117;-76
2022/08/03 07:50:21;;;;;;;9.63;2.88;;;23.60;99.90;;;;;;5031099;28;20127;-76
2022/08/03 07:52:46;;;;;;;10.38;2.78;;;23.70;99.90;;;;;;5013880;28;20045;-77
2022/08/03 07:55:13;;;;;;;12.93;3.35;;;23.70;99.90;;;;;;5030822;28;20091;-76
2022/08/03 07:57:38;;;;;;;12.40;3.72;;;23.80;99.90;;;;;;5031174;28;20465;-76
2022/08/03 08:00:08;;;;;;;11.75;3.40;;;23.90;99.90;;;;;;5031618;28;20037;-76
2022/08/03 08:02:34;;;;;;;10.07;2.60;;;24.00;99.90;;;;;;5031216;28;20056;-76
2022/08/03 08:04:59;;;;;;;8.85;3.15;;;24.00;99.90;;;;;;5029415;28;20041;-76
2022/08/03 08:07:25;;;;;;;9.93;3.05;;;24.10;99.90;;;;;;5030254;28;20402;-76
2022/08/03 08:09:50;;;;;;;9.60;2.80;;;24.30;99.90;;;;;;5014846;28;20044;-76
2022/08/03 08:12:16;;;;;;;10.15;2.65;;;24.40;99.90;;;;;;5031311;28;20067;-76
2022/08/03 08:14:44;;;;;;;9.75;2.78;;;24.50;99.90;;;;;;5029914;28;20045;-75
2022/08/03 08:17:10;;;;;;;10.50;3.00;;;24.50;99.90;;;;;;5032223;28;20068;-76
2022/08/03 08:19:35;;;;;;;8.23;2.65;;;24.70;99.90;;;;;;5062951;28;20045;-77
2022/08/03 08:22:01;;;;;;;11.23;2.60;;;24.60;99.90;;;;;;5031608;28;20037;-75
2022/08/03 08:24:29;;;;;;;11.60;3.03;;;24.70;99.90;;;;;;5029339;28;20029;-75
2022/08/03 08:26:55;;;;;;;9.27;2.70;;;24.80;99.90;;;;;;5062646;28;20044;-75
2022/08/03 08:29:22;;;;;;;9.82;2.90;;;24.90;99.90;;;;;;5030136;28;20075;-75
2022/08/03 08:31:49;;;;;;;11.10;2.63;;;24.90;99.90;;;;;;5030497;28;20438;-76
2022/08/03 08:34:15;;;;;;;9.35;2.85;;;24.90;99.90;;;;;;5012644;28;20033;-75
2022/08/03 08:36:40;;;;;;;11.88;3.00;;;24.90;99.90;;;;;;5030472;28;20456;-75
2022/08/03 08:39:06;;;;;;;8.88;3.08;;;24.90;99.90;;;;;;5013357;28;20073;-75
2022/08/03 08:41:35;;;;;;;10.35;3.72;;;24.90;99.90;;;;;;5029913;28;20507;-75
2022/08/03 08:44:01;;;;;;;9.63;3.00;;;24.80;99.90;;;;;;5030120;28;20033;-75
2022/08/03 08:46:30;;;;;;;14.00;3.10;;;24.80;99.90;;;;;;5029913;28;20038;-75
2022/08/03 08:48:56;;;;;;;9.43;2.97;;;24.80;99.90;;;;;;5062945;28;20038;-76
2022/08/03 08:51:28;;;;;;;9.55;2.95;;;24.90;99.90;;;;;;5038474;28;20407;-77
2022/08/03 08:53:56;;;;;;;9.95;3.20;;;25.20;99.90;;;;;;5046219;28;20041;-76
2022/08/03 08:56:24;;;;;;;10.73;3.63;;;25.30;99.90;;;;;;5030591;28;20401;-75
2022/08/03 08:58:57;;;;;;;10.18;3.40;;;25.50;99.90;;;;;;5027361;28;20080;-76
2022/08/03 09:01:23;;;;;;;9.60;2.88;;;25.40;99.90;;;;;;5023156;28;20085;-75
2022/08/03 09:03:50;;;;;;;10.68;2.95;;;25.30;99.90;;;;;;5037331;28;20037;-75
2022/08/03 09:06:16;;;;;;;12.32;3.50;;;25.30;99.90;;;;;;5031553;28;20077;-75
2022/08/03 09:08:42;;;;;;;12.55;3.67;;;25.10;99.90;;;;;;5060648;28;20037;-75
2022/08/03 09:11:08;;;;;;;8.20;3.20;;;25.20;99.90;;;;;;5030534;28;20045;-76
2022/08/03 09:13:34;;;;;;;7.47;3.20;;;25.10;99.90;;;;;;5020904;28;20117;-76
2022/08/03 09:16:20;;;;;;;10.90;3.50;;;25.00;99.90;;;;;;5030420;28;20048;-75
2022/08/03 09:18:52;;;;;;;9.77;3.22;;;24.90;99.90;;;;;;5001684;28;20038;-75
2022/08/03 09:21:23;;;;;;;9.05;2.80;;;24.90;99.90;;;;;;5010319;28;20034;-76
2022/08/03 09:23:59;;;;;;;13.35;3.47;;;25.00;99.90;;;;;;4999330;28;20049;-75
2022/08/03 09:26:30;;;;;;;13.30;3.95;;;25.10;99.90;;;;;;5053644;28;20044;-75
2022/08/03 09:29:09;;;;;;;12.77;3.88;;;25.20;99.90;;;;;;5011426;28;20126;-75
2022/08/03 09:31:44;;;;;;;9.82;3.85;;;25.30;99.90;;;;;;5026095;28;20148;-75
2022/08/03 09:34:12;;;;;;;8.70;3.28;;;25.40;99.90;;;;;;5032556;28;20124;-75
2022/08/03 09:36:48;;;;;;;9.45;3.88;;;25.50;99.90;;;;;;5038431;28;20041;-75
2022/08/03 09:39:20;;;;;;;10.18;3.35;;;25.60;99.90;;;;;;5031653;28;20120;-77
2022/08/03 09:41:48;;;;;;;11.52;3.28;;;25.60;99.90;;;;;;5019356;28;20125;-76
2022/08/03 09:44:14;;;;;;;8.43;3.42;;;25.60;99.90;;;;;;5025424;28;20431;-76
2022/08/03 09:46:55;;;;;;;8.25;3.22;;;25.70;99.90;;;;;;5034856;28;20132;-76
2022/08/03 09:49:21;;;;;;;10.18;3.90;;;25.80;99.90;;;;;;5028986;28;20040;-76
2022/08/03 09:51:47;;;;;;;10.55;3.63;;;25.90;99.90;;;;;;5032313;28;20030;-76
2022/08/03 09:54:24;;;;;;;11.13;3.28;;;25.90;99.90;;;;;;5028868;28;20491;-75
2022/08/03 09:56:50;;;;;;;9.40;3.20;;;25.90;99.90;;;;;;5065594;28;20040;-76
2022/08/03 09:59:27;;;;;;;12.52;3.40;;;25.90;99.90;;;;;;5048605;28;20041;-76
2022/08/03 10:01:54;;;;;;;10.23;3.50;;;25.90;99.90;;;;;;5028878;28;20046;-77
2022/08/03 10:04:21;;;;;;;10.40;2.97;;;26.00;99.90;;;;;;5028264;28;20046;-76
2022/08/03 10:07:01;;;;;;;6.93;2.80;;;26.10;99.90;;;;;;5029436;28;20049;-76
2022/08/03 10:09:26;;;;;;;8.70;3.28;;;26.20;99.90;;;;;;5030097;28;20088;-75
2022/08/03 10:11:52;;;;;;;9.90;3.20;;;26.20;99.90;;;;;;5029638;28;20041;-76
2022/08/03 10:14:18;;;;;;;12.60;3.42;;;26.20;99.90;;;;;;5028801;28;20081;-76
2022/08/03 10:16:45;;;;;;;12.00;3.05;;;26.20;99.90;;;;;;5029234;28;20096;-76
2022/08/03 10:19:13;;;;;;;9.88;3.20;;;26.40;99.90;;;;;;5028886;28;20092;-75
2022/08/03 10:21:41;;;;;;;10.35;3.58;;;26.40;99.90;;;;;;5027528;28;20462;-76
2022/08/03 10:24:11;;;;;;;10.27;3.47;;;26.60;99.90;;;;;;5028506;28;20465;-75
2022/08/03 10:26:39;;;;;;;7.93;3.22;;;26.70;99.90;;;;;;5061283;28;20540;-75
2022/08/03 10:29:11;;;;;;;11.20;3.55;;;26.70;99.90;;;;;;5045815;28;20052;-76
2022/08/03 10:31:43;;;;;;;11.32;3.40;;;26.80;99.90;;;;;;5027632;28;20111;-75
2022/08/03 10:34:17;;;;;;;11.90;3.10;;;26.90;99.90;;;;;;5061582;28;20046;-77
2022/08/03 10:36:44;;;;;;;11.52;3.20;;;27.10;99.90;;;;;;5029340;28;20091;-76
2022/08/03 10:39:13;;;;;;;10.85;3.22;;;27.20;99.90;;;;;;5032075;28;20041;-76
2022/08/03 10:41:41;;;;;;;11.45;3.30;;;27.30;99.90;;;;;;5033151;28;20709;-76
2022/08/03 10:44:17;;;;;;;10.32;3.30;;;27.30;99.90;;;;;;5064309;28;20044;-76
2022/08/03 10:46:43;;;;;;;14.35;3.65;;;27.40;99.90;;;;;;5028727;28;20064;-77
2022/08/03 10:49:12;;;;;;;15.23;3.95;;;27.50;99.90;;;;;;5028549;28;20045;-76
2022/08/03 10:51:38;;;;;;;13.60;3.65;;;27.70;99.90;;;;;;5037905;28;20112;-76
2022/08/03 10:54:04;;;;;;;13.75;3.80;;;27.70;99.90;;;;;;5071927;28;20041;-76
2022/08/03 10:59:45;;;;;;;15.02;3.97;;;27.90;99.90;;;;;;5050624;28;20081;-78
2022/08/03 11:02:12;;;;;;;11.30;3.80;;;28.00;99.90;;;;;;5059654;28;20523;-76
2022/08/03 11:04:39;;;;;;;10.15;3.78;;;28.00;99.90;;;;;;5031970;28;20175;-76
2022/08/03 11:07:22;;;;;;;9.02;3.15;;;28.10;99.90;;;;;;5036882;28;20060;-76
2022/08/03 11:09:52;;;;;;;15.17;3.73;;;28.30;99.90;;;;;;5020142;28;20037;-75
2022/08/03 11:12:25;;;;;;;9.30;3.45;;;28.40;99.90;;;;;;5070192;28;20037;-75
2022/08/03 11:14:52;;;;;;;12.73;4.10;;;28.40;99.90;;;;;;5034174;28;20102;-76
2022/08/03 11:17:18;;;;;;;12.65;4.40;;;28.50;99.90;;;;;;5034610;28;20419;-75
2022/08/03 11:19:48;;;;;;;12.20;4.10;;;28.50;99.90;;;;;;5034244;28;20132;-76
2022/08/03 11:22:15;;;;;;;12.25;3.95;;;28.60;99.90;;;;;;5031227;28;20044;-76
2022/08/03 11:24:42;;;;;;;15.52;3.90;;;28.70;99.90;;;;;;5031276;28;20048;-76
2022/08/03 11:27:16;;;;;;;16.27;4.05;;;28.70;99.90;;;;;;5031621;28;20042;-75
2022/08/03 11:30:04;;;;;;;13.55;3.33;;;28.80;99.90;;;;;;5031858;28;20044;-77
2022/08/03 11:32:39;;;;;;;11.85;4.07;;;28.80;99.90;;;;;;5031916;28;20045;-76
2022/08/03 11:35:11;;;;;;;12.30;3.50;;;29.10;99.90;;;;;;5031286;28;20353;-75
2022/08/03 11:38:01;;;;;;;12.02;3.80;;;29.10;99.90;;;;;;5031719;28;20056;-76
2022/08/03 11:40:37;;;;;;;13.68;4.13;;;29.30;99.90;;;;;;5065229;28;20076;-76
2022/08/03 11:43:23;;;;;;;11.55;4.03;;;29.40;99.90;;;;;;5064839;28;20447;-75
2022/08/03 11:46:02;;;;;;;14.00;4.13;;;29.40;99.90;;;;;;5030860;28;20056;-76
2022/08/03 11:48:43;;;;;;;12.10;4.03;;;29.50;99.90;;;;;;5031579;28;20458;-76
2022/08/03 11:51:19;;;;;;;13.38;3.92;;;29.60;99.90;;;;;;5030939;28;20034;-76
2022/08/03 11:53:46;;;;;;;15.63;3.88;;;29.80;99.90;;;;;;5030728;28;20037;-76
2022/08/03 11:56:12;;;;;;;13.25;3.70;;;29.80;99.90;;;;;;5029762;28;20514;-76
2022/08/03 11:58:49;;;;;;;13.00;3.90;;;29.90;99.90;;;;;;5030472;28;20130;-77
2022/08/03 12:01:15;;;;;;;11.02;3.95;;;30.10;99.90;;;;;;5031413;28;20041;-76
2022/08/03 12:03:42;;;;;;;16.00;3.70;;;30.10;99.90;;;;;;5033095;28;20045;-76
2022/08/03 12:06:11;;;;;;;13.07;3.67;;;30.30;99.90;;;;;;5038556;28;20067;-75
2022/08/03 12:08:37;;;;;;;13.65;3.53;;;30.30;99.90;;;;;;5041613;28;20033;-76
2022/08/03 12:11:05;;;;;;;14.55;3.50;;;30.40;99.90;;;;;;5040608;28;20037;-78
2022/08/03 12:13:46;;;;;;;16.25;4.00;;;30.60;99.90;;;;;;5024920;28;20103;-76
2022/08/03 12:16:19;;;;;;;13.65;3.67;;;30.60;99.90;;;;;;5033094;28;20434;-78
2022/08/03 12:18:53;;;;;;;16.30;3.75;;;30.60;99.90;;;;;;5054527;28;21703;-77
2022/08/03 12:21:23;;;;;;;13.68;3.70;;;30.60;99.90;;;;;;5045927;28;20496;-77
2022/08/03 12:23:48;;;;;;;11.90;3.15;;;30.90;99.90;;;;;;5034049;28;20041;-77
2022/08/03 12:26:14;;;;;;;11.57;3.10;;;31.00;99.90;;;;;;5041141;28;20119;-76
2022/08/03 12:28:47;;;;;;;15.20;3.58;;;31.10;99.90;;;;;;5016449;28;20644;-77
2022/08/03 12:31:12;;;;;;;12.88;3.38;;;31.10;99.90;;;;;;5034878;28;20047;-76
2022/08/03 12:33:57;;;;;;;12.68;3.88;;;31.20;99.90;;;;;;5011209;28;20116;-77
2022/08/03 12:36:23;;;;;;;14.73;3.85;;;31.30;99.90;;;;;;5023941;28;20090;-77
2022/08/03 12:38:57;;;;;;;10.65;3.58;;;31.40;99.90;;;;;;5047106;28;20045;-76
2022/08/03 12:41:34;;;;;;;11.32;3.75;;;31.50;99.90;;;;;;5015367;28;20088;-76
2022/08/03 12:44:04;;;;;;;12.52;4.05;;;31.70;99.90;;;;;;5029803;28;20042;-77
2022/08/03 12:46:35;;;;;;;10.90;3.88;;;31.60;99.90;;;;;;5056463;28;20510;-77
2022/08/03 12:49:14;;;;;;;12.85;3.67;;;31.70;99.90;;;;;;5041098;28;20048;-78
2022/08/03 12:51:42;;;;;;;14.32;3.95;;;31.80;99.90;;;;;;5031064;28;20566;-77
2022/08/03 12:54:15;;;;;;;13.50;3.38;;;31.90;99.90;;;;;;5060330;28;20164;-76
2022/08/03 12:57:19;;;;;;;15.33;4.60;;;31.80;99.90;;;;;;5029305;28;20045;-77
2022/08/03 12:59:47;;;;;;;12.55;4.88;;;31.80;99.90;;;;;;4968664;28;20105;-75
2022/08/03 13:02:18;;;;;;;13.50;4.80;;;31.80;99.90;;;;;;4954697;28;20126;-76